Time;durP1;ratioP1;P1;durP2;ratioP2;P2;SDS_P1;SDS_P2;PMS_P1;PMS_P2;Temp;Humidity;BMP_temperature;BMP_pressure;BME280_temperature;BME280_humidity;BME280_pressure;Samples;Min_cycle;Max_cycle;Signal;HPM_P1;HPM_P2
2022/06/21 00:02:00;;;;;;;10.70;3.10;;;;;;;19.28;62.35;97709.16;104621;1274;63160;-24
2022/06/21 00:04:28;;;;;;;5.10;2.40;;;;;;;19.22;62.27;97705.09;104700;1274;61741;-24
2022/06/21 00:06:57;;;;;;;3.90;2.80;;;;;;;19.19;62.29;97708.00;105001;1274;76673;-24
2022/06/21 00:09:25;;;;;;;4.50;2.80;;;;;;;19.18;62.16;97702.31;104644;1274;75976;-24
2022/06/21 00:11:52;;;;;;;7.70;2.70;;;;;;;19.14;62.52;97698.13;104738;1276;75348;-25
2022/06/21 00:14:19;;;;;;;5.20;2.40;;;;;;;19.14;62.41;97693.87;104983;1274;64895;-24
2022/06/21 00:16:47;;;;;;;6.00;2.60;;;;;;;19.53;61.19;97691.00;105059;1274;62953;-24
2022/06/21 00:19:20;;;;;;;6.30;2.80;;;;;;;19.90;59.88;97694.46;104922;1274;75597;-24
2022/06/21 00:21:48;;;;;;;6.40;2.00;;;;;;;20.01;59.82;97710.57;104882;1274;77175;-24
2022/06/21 00:24:18;;;;;;;6.50;2.30;;;;;;;19.85;59.94;97702.30;105028;1271;74289;-24
2022/06/21 00:26:46;;;;;;;4.50;2.50;;;;;;;19.62;60.55;97708.35;104702;1272;61080;-24
2022/06/21 00:29:13;;;;;;;4.80;2.40;;;;;;;19.42;60.90;97703.29;104641;1274;63017;-24
2022/06/21 00:31:48;;;;;;;7.50;2.20;;;;;;;19.20;61.50;97697.15;104914;1272;76804;-24
2022/06/21 00:34:19;;;;;;;4.80;2.60;;;;;;;19.05;61.60;97702.16;104473;1274;77023;-24
2022/06/21 00:36:47;;;;;;;2.90;1.90;;;;;;;18.92;61.93;97700.77;104545;1274;73493;-24
2022/06/21 00:39:16;;;;;;;2.60;1.90;;;;;;;18.80;62.21;97695.75;104759;1271;63223;-24
2022/06/21 00:41:53;;;;;;;3.50;2.10;;;;;;;18.69;62.54;97693.17;104604;1274;63071;-24
2022/06/21 00:44:32;;;;;;;5.10;2.00;;;;;;;18.57;63.11;97692.86;104657;1271;76574;-24
2022/06/21 00:47:40;;;;;;;5.70;2.30;;;;;;;18.50;63.41;97684.67;104613;1272;76594;-24
2022/06/21 00:50:32;;;;;;;9.90;1.90;;;;;;;18.45;63.15;97677.99;104737;1274;75619;-24
2022/06/21 00:53:07;;;;;;;3.20;1.50;;;;;;;18.41;63.71;97674.17;105016;1272;63622;-24
2022/06/21 00:55:57;;;;;;;4.70;1.90;;;;;;;19.05;62.50;97674.88;104893;1271;62393;-24
2022/06/21 00:58:28;;;;;;;2.90;1.90;;;;;;;19.55;60.70;97678.31;105098;1274;76597;-24
2022/06/21 01:01:09;;;;;;;2.90;2.20;;;;;;;19.55;60.69;97671.61;104830;1273;76743;-24
2022/06/21 01:03:40;;;;;;;3.50;1.90;;;;;;;19.43;61.08;97673.67;105070;1272;75390;-24
2022/06/21 01:06:10;;;;;;;5.30;2.30;;;;;;;19.28;61.21;97670.30;104689;1271;61994;-24
2022/06/21 01:08:39;;;;;;;6.20;2.20;;;;;;;19.09;61.95;97669.58;104652;1274;61042;-24
2022/06/21 01:11:11;;;;;;;3.10;2.10;;;;;;;18.88;62.66;97669.09;104682;1274;74382;-24
2022/06/21 01:13:44;;;;;;;4.50;1.90;;;;;;;18.72;63.04;97661.11;104681;1271;75709;-24
2022/06/21 01:16:11;;;;;;;5.60;2.10;;;;;;;18.54;63.70;97664.73;104729;1274;75633;-24
2022/06/21 01:18:39;;;;;;;3.20;2.40;;;;;;;18.39;64.27;97664.08;104573;1274;62065;-24
2022/06/21 01:21:06;;;;;;;3.10;2.10;;;;;;;18.25;64.63;97664.30;104634;1274;61736;-24
2022/06/21 01:24:08;;;;;;;7.70;2.50;;;;;;;18.13;64.69;97660.92;104621;1274;76631;-24
2022/06/21 01:26:56;;;;;;;4.10;1.40;;;;;;;18.08;65.11;97659.09;104661;1274;76926;-24
2022/06/21 01:29:30;;;;;;;2.00;1.80;;;;;;;18.83;64.15;97656.95;104644;1273;75523;-24
2022/06/21 01:32:03;;;;;;;3.90;1.80;;;;;;;19.28;62.39;97651.66;104644;1274;63097;-24
2022/06/21 01:34:30;;;;;;;3.10;2.10;;;;;;;19.17;62.43;97648.05;104607;1272;63108;-24
2022/06/21 01:37:06;;;;;;;3.00;2.10;;;;;;;18.97;62.96;97646.65;104692;1274;75288;-24
2022/06/21 01:39:42;;;;;;;3.00;2.20;;;;;;;18.79;63.41;97639.21;104624;1274;77415;-24
2022/06/21 01:42:21;;;;;;;4.00;2.20;;;;;;;18.62;63.97;97635.16;104492;1274;74334;-24
2022/06/21 01:44:52;;;;;;;3.20;1.90;;;;;;;18.44;64.47;97628.88;104606;1274;61665;-24
2022/06/21 01:47:22;;;;;;;3.70;2.10;;;;;;;18.30;64.71;97629.98;104402;1271;61586;-24
2022/06/21 01:49:53;;;;;;;3.80;2.30;;;;;;;18.15;65.36;97639.36;104476;1274;76519;-24
2022/06/21 01:52:22;;;;;;;2.20;1.90;;;;;;;17.98;65.46;97637.19;104622;1271;76253;-24
2022/06/21 01:55:17;;;;;;;2.40;2.10;;;;;;;17.80;66.69;97637.30;104632;1271;75209;-24
2022/06/21 01:57:45;;;;;;;2.80;2.00;;;;;;;17.67;67.93;97634.98;104467;1271;64782;-24
2022/06/21 02:00:12;;;;;;;4.60;2.30;;;;;;;18.12;66.58;97628.27;104631;1271;62602;-24
2022/06/21 02:02:42;;;;;;;2.50;1.80;;;;;;;18.42;65.35;97630.90;104836;1271;76549;-24
2022/06/21 02:05:13;;;;;;;3.40;2.20;;;;;;;18.41;64.97;97638.12;104858;1271;77129;-24
2022/06/21 02:07:49;;;;;;;4.00;2.70;;;;;;;18.27;65.08;97639.33;105097;1271;75504;-24
2022/06/21 02:10:45;;;;;;;7.00;2.10;;;;;;;18.04;65.62;97639.73;104761;1274;63382;-24
2022/06/21 02:13:32;;;;;;;5.60;2.40;;;;;;;17.78;66.81;97646.25;104797;1271;61910;-24
2022/06/21 02:16:12;;;;;;;5.90;2.30;;;;;;;17.53;67.42;97648.55;104661;1271;76596;-24
2022/06/21 02:18:40;;;;;;;4.90;2.10;;;;;;;17.41;68.03;97644.84;104607;1274;76853;-24
2022/06/21 02:21:15;;;;;;;4.30;2.20;;;;;;;17.90;67.80;97642.66;104636;1271;75540;-24
2022/06/21 02:23:51;;;;;;;3.30;1.90;;;;;;;18.35;66.47;97632.52;104615;1271;62976;-24
2022/06/21 02:26:18;;;;;;;4.20;2.10;;;;;;;18.45;66.21;97633.28;104670;1271;62399;-24
2022/06/21 02:28:46;;;;;;;4.50;2.40;;;;;;;18.43;66.02;97627.66;104692;1274;75488;-24
2022/06/21 02:31:13;;;;;;;3.60;2.40;;;;;;;18.34;66.27;97633.36;104777;1271;76087;-24
2022/06/21 02:33:40;;;;;;;3.30;2.50;;;;;;;18.26;66.57;97626.52;104678;1271;75445;-24
2022/06/21 02:36:12;;;;;;;3.30;2.60;;;;;;;18.23;66.44;97628.59;104740;1271;61784;-24
2022/06/21 02:38:41;;;;;;;3.90;2.40;;;;;;;18.16;66.61;97631.20;104702;1271;63170;-24
2022/06/21 02:41:21;;;;;;;5.80;2.50;;;;;;;18.04;67.63;97628.83;104593;1274;76590;-24
2022/06/21 02:43:54;;;;;;;7.50;2.40;;;;;;;18.03;68.20;97625.27;104750;1271;75769;-24
2022/06/21 02:46:26;;;;;;;2.50;2.10;;;;;;;18.76;66.60;97619.96;104662;1274;74144;-24
2022/06/21 02:49:06;;;;;;;3.90;2.00;;;;;;;19.44;64.51;97616.69;104592;1274;61125;-24
2022/06/21 02:51:57;;;;;;;6.50;2.60;;;;;;;19.66;63.65;97618.18;104535;1274;62125;-24
2022/06/21 02:54:25;;;;;;;3.50;2.40;;;;;;;19.73;63.20;97617.94;104650;1274;75265;-24
2022/06/21 02:56:59;;;;;;;9.60;2.50;;;;;;;19.69;63.30;97617.25;104687;1274;76993;-24
2022/06/21 02:59:27;;;;;;;4.90;2.50;;;;;;;19.66;63.23;97624.04;104609;1274;75452;-24
2022/06/21 03:01:58;;;;;;;5.40;2.30;;;;;;;19.64;63.26;97624.09;104665;1272;62983;-24
2022/06/21 03:04:47;;;;;;;6.80;2.70;;;;;;;19.65;63.58;97625.39;104625;1272;62998;-24
2022/06/21 03:07:18;;;;;;;4.70;2.70;;;;;;;19.66;63.57;97621.58;104462;1274;75401;-24
2022/06/21 03:09:45;;;;;;;7.20;2.80;;;;;;;19.75;63.63;97618.90;104544;1271;76685;-24
2022/06/21 03:12:17;;;;;;;5.70;1.60;;;;;;;19.90;64.01;97621.39;104580;1274;75365;-24
2022/06/21 03:14:44;;;;;;;3.90;2.20;;;;;;;20.61;62.92;97618.09;104596;1275;62887;-24
2022/06/21 03:17:12;;;;;;;6.90;2.60;;;;;;;21.37;61.27;97614.36;104636;1274;63094;-24
2022/06/21 03:19:48;;;;;;;3.60;2.70;;;;;;;21.72;59.69;97616.05;104769;1274;76147;-24
2022/06/21 03:22:18;;;;;;;5.90;2.60;;;;;;;21.63;60.02;97608.50;104740;1272;77003;-24
2022/06/21 03:24:47;;;;;;;5.90;2.70;;;;;;;21.41;60.51;97606.35;104688;1271;74471;-24
2022/06/21 03:27:27;;;;;;;4.20;2.40;;;;;;;21.18;60.88;97609.19;104632;1274;61997;-24
2022/06/21 03:29:55;;;;;;;7.80;3.30;;;;;;;20.98;61.73;97602.63;104968;1271;61950;-24
2022/06/21 03:32:23;;;;;;;10.00;3.50;;;;;;;20.91;62.09;97600.87;104898;1274;76578;-24
2022/06/21 03:34:50;;;;;;;6.50;4.00;;;;;;;20.82;62.58;97607.63;104757;1274;77018;-24
2022/06/21 03:37:18;;;;;;;6.90;4.00;;;;;;;20.66;63.20;97608.38;104713;1274;74408;-24
2022/06/21 03:42:33;;;;;;;6.50;3.10;;;;;;;20.76;64.08;97608.08;104634;1274;62105;-24
2022/06/21 03:45:08;;;;;;;5.70;3.40;;;;;;;20.80;64.00;97607.48;104687;1271;76577;-24
2022/06/21 03:47:38;;;;;;;4.10;2.10;;;;;;;20.77;64.61;97608.34;104954;1271;77378;-24
2022/06/21 03:50:10;;;;;;;6.80;2.80;;;;;;;21.28;63.88;97613.85;104638;1274;74748;-24
2022/06/21 03:52:53;;;;;;;6.50;3.10;;;;;;;21.73;62.42;97611.91;104694;1271;63096;-24
2022/06/21 03:55:38;;;;;;;4.70;3.10;;;;;;;21.68;62.12;97609.84;104773;1271;62173;-24
2022/06/21 03:58:34;;;;;;;7.50;3.10;;;;;;;21.47;63.34;97618.20;104642;1274;75413;-24
2022/06/21 04:01:18;;;;;;;7.20;3.30;;;;;;;21.06;64.59;97614.36;104817;1271;77294;-25
2022/06/21 04:04:11;;;;;;;6.50;3.50;;;;;;;20.96;65.16;97614.39;104650;1271;75478;-24
2022/06/21 04:06:58;;;;;;;5.50;3.40;;;;;;;20.89;65.31;97607.45;104708;1271;63005;-24
2022/06/21 04:09:33;;;;;;;12.10;4.20;;;;;;;20.93;65.75;97615.00;104632;1271;61784;-24
2022/06/21 04:12:11;;;;;;;7.30;4.20;;;;;;;21.11;65.69;97615.33;104895;1271;75515;-24
2022/06/21 04:14:45;;;;;;;8.10;3.90;;;;;;;21.36;64.97;97611.94;104780;1271;76984;-24
2022/06/21 04:17:14;;;;;;;9.20;3.00;;;;;;;21.55;64.51;97609.31;105098;1271;74473;-24
2022/06/21 04:20:07;;;;;;;4.10;2.90;;;;;;;22.04;63.72;97602.92;104886;1273;61144;-24
2022/06/21 04:22:50;;;;;;;6.00;3.40;;;;;;;22.42;62.46;97606.80;104713;1271;62890;-24
2022/06/21 04:25:20;;;;;;;;;;;;;;;22.37;62.51;97603.88;104776;1271;75303;-24
2022/06/21 04:27:47;;;;;;;6.90;3.30;;;;;;;22.20;63.24;97599.30;104745;1271;76958;-24
2022/06/21 04:30:23;;;;;;;7.20;3.40;;;;;;;22.04;64.42;97602.88;104674;1271;75578;-24
2022/06/21 04:32:55;;;;;;;5.30;3.70;;;;;;;21.90;65.08;97604.34;104725;1271;63207;-24
2022/06/21 04:35:29;;;;;;;7.50;3.80;;;;;;;21.74;65.69;97603.92;104694;1271;61908;-24
2022/06/21 04:38:37;;;;;;;18.30;4.20;;;;;;;21.72;65.61;97606.20;104682;1271;75571;-24
2022/06/21 04:41:07;;;;;;;8.30;4.30;;;;;;;21.54;66.03;97598.76;104560;1271;75854;-24
2022/06/21 04:43:41;;;;;;;10.80;3.40;;;;;;;21.50;66.46;97597.15;104737;1271;75169;-24
2022/06/21 04:46:18;;;;;;;6.30;3.50;;;;;;;21.41;66.43;97593.02;104646;1274;64741;-24
2022/06/21 04:48:52;;;;;;;9.60;3.20;;;;;;;21.84;65.31;97594.32;104555;1274;61977;-24
2022/06/21 04:51:53;;;;;;;6.30;3.10;;;;;;;22.05;64.76;97600.74;104794;1274;76931;-24
2022/06/21 04:54:24;;;;;;;5.70;3.10;;;;;;;22.00;65.10;97602.70;104727;1273;74990;-24
2022/06/21 04:56:51;;;;;;;9.70;3.00;;;;;;;21.88;65.46;97607.07;104629;1274;75294;-25
2022/06/21 04:59:28;;;;;;;7.10;3.60;;;;;;;21.75;66.16;97608.82;104613;1274;62134;-24
2022/06/21 05:01:56;;;;;;;7.50;3.60;;;;;;;21.66;66.42;97607.23;104601;1274;62140;-25
2022/06/21 05:04:24;;;;;;;10.00;4.20;;;;;;;21.50;67.04;97606.73;104649;1274;75222;-24
2022/06/21 05:06:52;;;;;;;10.10;3.10;;;;;;;21.41;67.62;97602.60;104658;1274;77089;-24
2022/06/21 05:09:21;;;;;;;6.20;2.90;;;;;;;21.41;67.25;97601.19;104647;1274;74611;-24
2022/06/21 05:11:53;;;;;;;6.30;3.70;;;;;;;21.89;66.31;97603.17;104460;1274;63133;-24
2022/06/21 05:14:23;;;;;;;5.00;2.90;;;;;;;21.97;65.89;97602.70;104483;1274;63393;-24
2022/06/21 05:16:50;;;;;;;4.40;3.20;;;;;;;21.99;65.74;97605.27;104672;1274;76288;-24
2022/06/21 05:19:19;;;;;;;6.80;3.10;;;;;;;21.78;66.46;97599.98;104859;1274;77081;-24
2022/06/21 05:22:11;;;;;;;7.10;3.50;;;;;;;21.74;66.82;97599.68;104885;1274;71956;-24
2022/06/21 05:24:38;;;;;;;7.70;4.00;;;;;;;21.65;67.30;97600.77;104953;1274;61917;-24
2022/06/21 05:27:21;;;;;;;6.00;3.80;;;;;;;21.59;67.55;97594.52;104608;1271;62028;-24
2022/06/21 05:30:05;;;;;;;6.30;2.60;;;;;;;21.61;67.84;97593.09;104582;1274;76482;-24
2022/06/21 05:32:39;;;;;;;6.40;3.80;;;;;;;22.23;66.14;97584.63;104828;1274;76964;-24
2022/06/21 05:35:13;;;;;;;7.50;3.00;;;;;;;22.37;65.21;97584.88;104915;1274;74204;-25
2022/06/21 05:38:05;;;;;;;4.30;2.90;;;;;;;22.34;65.52;97589.51;104730;1274;61854;-24
2022/06/21 05:40:47;;;;;;;8.00;3.70;;;;;;;22.04;66.42;97595.23;104800;1274;61813;-24
2022/06/21 05:43:20;;;;;;;9.80;3.90;;;;;;;21.91;67.12;97597.85;104723;1274;76792;-24
2022/06/21 05:45:51;;;;;;;10.60;3.70;;;;;;;21.61;68.10;97605.45;104598;1274;75064;-24
2022/06/21 05:48:24;;;;;;;8.00;4.00;;;;;;;21.46;69.15;97615.42;104684;1274;74393;-24
2022/06/21 05:50:52;;;;;;;5.00;2.90;;;;;;;21.39;69.65;97620.57;104696;1274;64620;-24
2022/06/21 05:53:32;;;;;;;8.20;3.80;;;;;;;21.79;68.58;97614.77;104606;1274;61872;-24
2022/06/21 05:56:04;;;;;;;6.60;3.80;;;;;;;21.94;67.80;97612.66;104586;1274;75540;-24
2022/06/21 05:58:36;;;;;;;8.10;3.30;;;;;;;21.86;68.05;97610.57;104773;1273;77139;-24
2022/06/21 06:01:09;;;;;;;4.60;3.30;;;;;;;21.63;69.15;97615.35;104754;1274;75341;-24
2022/06/21 06:04:09;;;;;;;8.60;4.70;;;;;;;21.52;69.33;97611.10;104604;1274;63084;-24
2022/06/21 06:06:39;;;;;;;13.10;4.80;;;;;;;21.32;70.47;97613.52;104776;1274;63354;-24
2022/06/21 06:09:38;;;;;;;59.30;5.30;;;;;;;21.36;70.54;97616.46;104570;1274;76421;-24
2022/06/21 06:12:05;;;;;;;5.20;3.50;;;;;;;21.98;68.77;97613.48;104846;1274;76372;-24
2022/06/21 06:14:53;;;;;;;6.40;4.40;;;;;;;22.33;67.44;97604.38;104699;1274;74259;-24
2022/06/21 06:17:47;;;;;;;9.10;4.30;;;;;;;22.18;67.71;97604.68;104648;1274;62312;-24
2022/06/21 06:20:29;;;;;;;8.80;4.60;;;;;;;22.19;68.25;97599.52;104620;1274;61976;-24
2022/06/21 06:23:01;;;;;;;11.10;5.10;;;;;;;22.13;68.08;97592.83;104674;1274;76593;-24
2022/06/21 06:25:43;;;;;;;10.20;5.20;;;;;;;21.79;67.79;97596.60;104924;1274;76110;-24
2022/06/21 06:28:33;;;;;;;9.00;4.90;;;;;;;21.85;68.21;97603.19;104902;1274;75533;-24
2022/06/21 06:31:32;;;;;;;5.90;4.10;;;;;;;21.76;68.30;97611.69;104826;1274;61786;-24
2022/06/21 06:34:11;;;;;;;6.30;4.40;;;;;;;21.89;67.30;97612.17;104871;1274;63115;-24
2022/06/21 06:37:02;;;;;;;6.00;4.60;;;;;;;21.96;66.72;97611.61;104650;1274;75449;-24
2022/06/21 06:39:31;;;;;;;9.70;5.30;;;;;;;21.77;67.61;97617.59;104685;1274;76089;-24
2022/06/21 06:42:01;;;;;;;7.60;4.50;;;;;;;21.56;68.64;97619.87;104680;1274;74761;-24
2022/06/21 06:44:29;;;;;;;12.10;5.40;;;;;;;21.46;69.02;97624.89;104613;1274;62455;-24
2022/06/21 07:04:21;;;;;;;6.60;4.30;;;;;;;20.70;73.30;97637.66;104997;1271;61197;-24
2022/06/21 07:06:58;;;;;;;8.20;5.70;;;;;;;20.72;73.63;97636.41;104611;1271;61997;-24
2022/06/21 07:09:47;;;;;;;7.20;5.60;;;;;;;21.01;72.74;97638.52;104701;1271;76907;-24
2022/06/21 07:12:25;;;;;;;8.70;4.60;;;;;;;20.73;72.42;97631.10;104651;1274;75862;-24
2022/06/21 07:14:53;;;;;;;15.20;5.20;;;;;;;20.53;73.56;97633.27;104594;1274;75413;-24
2022/06/21 07:17:45;;;;;;;5.40;4.00;;;;;;;20.37;75.08;97637.60;104733;1271;61175;-24
2022/06/21 07:20:23;;;;;;;7.70;4.00;;;;;;;19.82;76.55;97638.87;104677;1271;63093;-24
2022/06/21 07:22:52;;;;;;;8.40;4.30;;;;;;;19.86;75.90;97638.30;105085;1271;76557;-24
2022/06/21 07:25:24;;;;;;;4.80;4.10;;;;;;;19.73;76.53;97646.71;105136;1271;76126;-25
2022/06/21 07:27:53;;;;;;;6.00;4.70;;;;;;;19.61;77.52;97651.86;104996;1271;74899;-24
2022/06/21 07:30:22;;;;;;;5.70;3.80;;;;;;;19.43;78.34;97663.15;104729;1272;64616;-24
2022/06/21 07:32:54;;;;;;;4.30;3.90;;;;;;;19.58;77.84;97663.50;104844;1271;61859;-24
2022/06/21 07:35:24;;;;;;;5.60;3.80;;;;;;;19.57;77.58;97653.57;104683;1271;76438;-24
2022/06/21 07:37:57;;;;;;;8.20;3.80;;;;;;;19.44;78.64;97671.48;104653;1271;75879;-24
2022/06/21 07:40:34;;;;;;;5.10;3.70;;;;;;;19.16;79.95;97672.66;104636;1271;75458;-24
2022/06/21 07:43:07;;;;;;;6.40;2.90;;;;;;;18.93;81.43;97678.11;104665;1271;63881;-24
2022/06/21 07:45:47;;;;;;;3.70;2.90;;;;;;;19.13;80.80;97677.19;104506;1274;61151;-22
2022/06/21 07:48:42;;;;;;;4.20;2.80;;;;;;;19.14;80.64;97684.73;104619;1274;76811;-23
2022/06/21 07:51:13;;;;;;;2.20;1.80;;;;;;;18.49;82.55;97689.78;104593;1274;77069;-23
2022/06/21 07:53:44;;;;;;;1.50;1.30;;;;;;;17.95;83.17;97693.86;104587;1274;74169;-22
2022/06/21 07:56:41;;;;;;;2.10;1.50;;;;;;;18.06;82.91;97712.30;104406;1274;62734;-22
2022/06/21 07:59:14;;;;;;;5.20;1.50;;;;;;;17.68;83.78;97723.98;104082;1274;480226;-22
2022/06/21 08:07:22;;;;;;;1.40;0.90;;;;;;;17.15;85.48;97742.73;104708;1274;75551;-21
2022/06/21 08:09:57;;;;;;;2.30;0.90;;;;;;;16.97;85.10;97739.85;104844;1274;61318;-21
2022/06/21 08:12:24;;;;;;;2.40;0.60;;;;;;;16.72;85.94;97736.69;104542;1274;62097;-21
2022/06/21 08:14:52;;;;;;;2.00;0.50;;;;;;;16.62;86.69;97741.09;104704;1273;75649;-21
2022/06/21 08:17:25;;;;;;;0.70;0.50;;;;;;;16.86;85.47;97737.53;104664;1274;77366;-21
2022/06/21 08:20:00;;;;;;;1.00;0.80;;;;;;;16.91;85.11;97738.45;104615;1274;75659;-21
2022/06/21 08:22:29;;;;;;;0.80;0.80;;;;;;;16.69;85.58;97743.50;104598;1274;62777;-21
2022/06/21 08:24:57;;;;;;;0.40;0.40;;;;;;;16.68;86.69;97758.18;104714;1274;63119;-21
2022/06/21 08:27:27;;;;;;;1.70;0.80;;;;;;;16.93;85.65;97752.61;104676;1274;75267;-21
2022/06/21 08:29:57;;;;;;;0.80;0.60;;;;;;;17.01;84.53;97751.04;104641;1274;75882;-22
2022/06/21 08:32:35;;;;;;;0.90;0.60;;;;;;;16.92;85.63;97753.45;104418;1274;75360;-21
2022/06/21 08:35:25;;;;;;;0.80;0.60;;;;;;;16.89;86.15;97751.63;104728;1274;63635;-21
2022/06/21 08:38:10;;;;;;;2.20;0.50;;;;;;;16.98;85.01;97740.34;104816;1274;62310;-21
2022/06/21 08:40:51;;;;;;;0.80;0.70;;;;;;;17.01;85.01;97749.58;104608;1274;74919;-22
2022/06/21 08:43:46;;;;;;;2.00;0.80;;;;;;;16.72;84.85;97756.66;104553;1274;76764;-22
2022/06/21 08:46:58;;;;;;;1.40;0.80;;;;;;;16.39;84.67;97752.91;104638;1274;75143;-22
2022/06/21 08:49:44;;;;;;;0.90;0.80;;;;;;;16.64;83.60;97748.74;104210;1280;61554;-21
2022/06/21 08:52:20;;;;;;;0.80;0.70;;;;;;;16.63;83.11;97753.95;104192;1280;63338;-22
2022/06/21 08:54:57;;;;;;;1.20;0.70;;;;;;;16.49;84.25;97748.13;104482;1280;76591;-22
2022/06/21 08:57:47;;;;;;;2.40;0.80;;;;;;;16.39;85.06;97742.80;104299;1279;77233;-22
2022/06/21 09:00:33;;;;;;;0.70;0.70;;;;;;;16.61;84.38;97734.63;104170;1280;75607;-21
2022/06/21 09:03:09;;;;;;;1.30;0.80;;;;;;;16.47;84.40;97733.16;104179;1280;63149;-21
2022/06/21 09:05:43;;;;;;;1.90;1.60;;;;;;;16.26;84.92;97755.55;104161;1280;61247;-22
2022/06/21 09:08:28;;;;;;;1.50;0.70;;;;;;;16.28;84.42;97760.42;104131;1280;76442;-22
2022/06/21 09:11:26;;;;;;;1.70;1.00;;;;;;;16.45;83.72;97777.19;104143;1280;76737;-21
2022/06/21 09:14:18;;;;;;;1.30;1.20;;;;;;;16.19;83.41;97776.92;104464;1280;75518;-23
2022/06/21 09:16:55;;;;;;;0.50;0.50;;;;;;;15.84;84.02;97796.61;104263;1280;64724;-23
2022/06/21 09:19:50;;;;;;;0.90;0.90;;;;;;;15.86;83.84;97804.40;104212;1280;62800;-22
2022/06/21 09:22:32;;;;;;;2.80;1.30;;;;;;;15.90;83.28;97829.83;104163;1280;76680;-22
2022/06/21 09:27:09;;;;;;;0.90;0.80;;;;;;;15.61;84.07;97837.18;101816;1310;600568;-22
2022/06/21 09:29:59;;;;;;;1.20;1.10;;;;;;;15.77;81.76;97831.73;103831;1285;62015;-22
2022/06/21 09:32:31;;;;;;;1.60;1.20;;;;;;;15.62;81.89;97840.54;104347;1287;62166;-22
2022/06/21 09:35:26;;;;;;;2.90;1.30;;;;;;;15.44;83.30;97846.89;103848;1286;74004;-22
2022/06/21 09:38:02;;;;;;;1.10;1.00;;;;;;;15.13;84.34;97841.04;104431;1284;77008;-21
2022/06/21 09:40:41;;;;;;;2.10;1.90;;;;;;;15.37;83.31;97831.21;103732;1284;529263;-23
2022/06/21 09:43:31;;;;;;;5.60;1.80;;;;;;;15.32;83.63;97827.98;104213;1284;61880;-22
2022/06/21 09:46:05;;;;;;;3.20;1.70;;;;;;;15.33;84.33;97833.27;104324;1284;62814;-22
2022/06/21 09:48:57;;;;;;;1.40;1.30;;;;;;;15.34;85.06;97845.83;103900;1286;75013;-22
2022/06/21 09:51:40;;;;;;;1.40;1.30;;;;;;;15.65;82.22;97845.61;104131;1284;76032;-22
2022/06/21 09:54:31;;;;;;;2.60;1.50;;;;;;;15.80;82.51;97861.21;103905;1284;75344;-22
2022/06/21 09:57:13;;;;;;;1.90;1.70;;;;;;;15.68;83.83;97856.60;104206;1286;62007;-22
2022/06/21 09:59:46;;;;;;;2.00;1.80;;;;;;;15.63;83.72;97851.64;104189;1284;61406;-22
2022/06/21 10:02:49;;;;;;;7.50;1.90;;;;;;;15.96;80.91;97843.49;103948;1284;74768;-22
2022/06/21 10:05:24;;;;;;;2.20;1.90;;;;;;;15.96;80.80;97839.41;103578;1286;76723;-22
2022/06/21 10:08:19;;;;;;;2.40;2.20;;;;;;;15.77;81.03;97827.73;104278;1281;75353;-23
2022/06/21 10:10:55;;;;;;;1.30;1.20;;;;;;;15.66;82.20;97828.71;104363;1282;64770;-23
2022/06/21 10:13:54;;;;;;;1.60;1.50;;;;;;;16.15;81.08;97838.19;104458;1280;63095;-23
2022/06/21 10:16:52;;;;;;;2.00;1.80;;;;;;;16.17;80.68;97823.09;104431;1280;75681;-23
2022/06/21 10:19:32;;;;;;;3.00;2.00;;;;;;;16.07;80.39;97831.58;104473;1281;76950;-23
2022/06/21 10:22:06;;;;;;;5.50;1.30;;;;;;;15.77;81.40;97834.35;104466;1281;73898;-23
2022/06/21 10:24:33;;;;;;;;;;;;;;;16.08;80.50;97824.60;104395;1281;62059;-24
2022/06/21 10:27:03;;;;;;;2.50;1.40;;;;;;;16.12;78.96;97830.17;104497;1280;61757;-24
2022/06/21 10:29:42;;;;;;;2.40;1.50;;;;;;;16.01;79.68;97846.60;104328;1280;75171;-24
2022/06/21 10:32:34;;;;;;;1.50;1.40;;;;;;;15.80;80.68;97837.05;104508;1280;77188;-24
2022/06/21 10:35:32;;;;;;;3.30;1.30;;;;;;;15.76;81.68;97817.41;104452;1283;74355;-24
2022/06/21 10:38:03;;;;;;;1.50;1.40;;;;;;;16.07;79.22;97810.58;104440;1281;62102;-24
2022/06/21 10:41:03;;;;;;;1.90;1.50;;;;;;;16.06;78.49;97802.05;104330;1280;62081;-24
2022/06/21 10:43:42;;;;;;;2.40;2.20;;;;;;;15.97;79.83;97798.74;104076;1281;75875;-24
2022/06/21 10:46:11;;;;;;;1.00;0.90;;;;;;;16.06;79.66;97804.99;104476;1284;77341;-24
2022/06/21 10:49:06;;;;;;;2.70;1.50;;;;;;;16.32;78.86;97828.08;104486;1280;75484;-24
2022/06/21 10:51:42;;;;;;;1.70;1.50;;;;;;;16.57;77.37;97848.52;104438;1281;63215;-25
2022/06/21 10:54:41;;;;;;;3.30;1.60;;;;;;;16.55;77.73;97849.92;104444;1280;61034;-24
2022/06/21 10:57:28;;;;;;;4.00;2.00;;;;;;;16.52;76.68;97837.17;104595;1281;75837;-24
2022/06/21 11:03:06;;;;;;;3.30;1.60;;;;;;;17.14;76.92;97802.69;104430;1280;75510;-24
2022/06/21 11:05:47;;;;;;;2.00;1.40;;;;;;;17.62;72.62;97794.61;104555;1281;63113;-24
2022/06/21 11:08:39;;;;;;;1.60;1.50;;;;;;;17.81;70.86;97799.38;104196;1281;62283;-24
2022/06/21 11:11:06;;;;;;;3.50;1.90;;;;;;;17.62;69.52;97806.14;104126;1280;74507;-24
2022/06/21 11:13:47;;;;;;;3.80;2.00;;;;;;;17.45;70.42;97801.22;104371;1280;77044;-24
2022/06/21 11:16:24;;;;;;;3.90;1.50;;;;;;;17.67;73.07;97791.66;104211;1280;75481;-23
2022/06/21 11:19:12;;;;;;;2.40;1.60;;;;;;;17.98;71.05;97784.09;103999;1281;62511;-24
2022/06/21 11:21:52;;;;;;;1.80;1.60;;;;;;;18.61;69.12;97765.42;104560;1280;61682;-24
2022/06/21 11:24:45;;;;;;;1.80;1.70;;;;;;;18.77;66.98;97769.39;104479;1281;74818;-24
2022/06/21 11:27:13;;;;;;;4.10;1.60;;;;;;;18.77;68.22;97767.23;104458;1280;76038;-24
2022/06/21 11:29:50;;;;;;;3.20;2.10;;;;;;;18.64;69.23;97762.23;104466;1281;75656;-24
2022/06/21 11:32:38;;;;;;;1.70;1.60;;;;;;;18.44;69.20;97758.77;104456;1281;63303;-23
2022/06/21 11:35:13;;;;;;;7.00;1.80;;;;;;;18.72;67.20;97745.48;104486;1280;63160;-24
2022/06/21 11:38:06;;;;;;;2.40;1.60;;;;;;;18.87;65.26;97748.17;104454;1280;75623;-25
2022/06/21 11:40:39;;;;;;;2.80;1.90;;;;;;;18.75;65.89;97736.73;104410;1281;76951;-25
2022/06/21 11:43:35;;;;;;;2.10;1.30;;;;;;;18.82;67.09;97751.20;104397;1280;75269;-25
2022/06/21 11:46:12;;;;;;;2.50;1.60;;;;;;;19.19;63.89;97752.69;104196;1280;62158;-25
2022/06/21 11:48:46;;;;;;;1.90;1.80;;;;;;;19.37;63.89;97758.70;104265;1280;61746;-25
2022/06/21 11:51:17;;;;;;;1.70;1.00;;;;;;;19.55;61.70;97756.54;104207;1281;74520;-26
2022/06/21 11:53:59;;;;;;;1.50;1.20;;;;;;;19.29;58.28;97738.05;104042;1283;75661;-25
2022/06/21 11:56:26;;;;;;;5.00;1.40;;;;;;;18.99;60.63;97739.89;104426;1280;75407;-25
2022/06/21 11:59:19;;;;;;;1.20;0.90;;;;;;;19.34;60.80;97735.35;104411;1280;61761;-25
2022/06/21 12:01:49;;;;;;;1.20;1.00;;;;;;;19.29;57.82;97746.01;104009;1283;62035;-25
2022/06/21 12:04:40;;;;;;;1.00;0.90;;;;;;;19.20;55.75;97734.86;104215;1280;74863;-24
2022/06/21 12:07:18;;;;;;;1.00;0.70;;;;;;;19.22;51.27;97738.05;104266;1280;76907;-24
2022/06/21 12:10:02;;;;;;;2.10;0.90;;;;;;;19.07;49.90;97731.09;104061;1281;75571;-24
2022/06/21 12:12:48;;;;;;;2.10;0.80;;;;;;;19.22;52.22;97741.46;104133;1280;63165;-24
2022/06/21 12:15:37;;;;;;;4.60;0.90;;;;;;;19.35;51.29;97734.23;104460;1281;63101;-25
2022/06/21 12:18:14;;;;;;;2.80;1.20;;;;;;;19.33;48.22;97706.76;104338;1280;75787;-24
2022/06/21 12:20:42;;;;;;;4.60;0.80;;;;;;;19.24;48.32;97714.91;104150;1281;77020;-24
2022/06/21 12:23:21;;;;;;;1.80;0.80;;;;;;;19.26;48.12;97708.63;104460;1281;75259;-25
2022/06/21 12:25:48;;;;;;;1.50;0.80;;;;;;;19.13;47.99;97707.10;104461;1280;62014;-25
2022/06/21 12:28:19;;;;;;;1.20;1.00;;;;;;;19.14;48.63;97710.90;103930;1280;61771;-25
2022/06/21 12:30:59;;;;;;;2.80;0.90;;;;;;;19.12;47.52;97702.61;104195;1281;75809;-24
2022/06/21 12:33:33;;;;;;;2.00;0.80;;;;;;;18.97;45.26;97684.09;104413;1280;77065;-24
2022/06/21 12:36:01;;;;;;;6.10;1.50;;;;;;;18.89;46.27;97703.84;104472;1280;75706;-24
2022/06/21 12:38:33;;;;;;;5.30;1.20;;;;;;;18.89;44.90;97701.55;104356;1281;63134;-24
2022/06/21 12:41:30;;;;;;;2.20;0.90;;;;;;;19.21;45.23;97706.96;103858;1280;61773;-24
2022/06/21 12:44:20;;;;;;;0.90;0.80;;;;;;;19.45;46.47;97707.36;104269;1280;74448;-25